Time;durP1;ratioP1;P1;durP2;ratioP2;P2;SDS_P1;SDS_P2;PMS_P1;PMS_P2;Temp;Humidity;BMP_temperature;BMP_pressure;BME280_temperature;BME280_humidity;BME280_pressure;Samples;Min_cycle;Max_cycle;Signal;HPM_P1;HPM_P2
2022/06/02 00:01:19;;;;;;;7.15;4.80;;;14.90;99.90;;;;;;4975493;28;20034;-77
2022/06/02 00:03:56;;;;;;;7.68;5.10;;;14.80;99.90;;;;;;4975311;28;20030;-77
2022/06/02 00:06:54;;;;;;;6.50;4.90;;;14.80;99.90;;;;;;4990172;28;20490;-77
2022/06/02 00:09:54;;;;;;;5.78;5.18;;;14.70;99.90;;;;;;4963335;28;20043;-77
2022/06/02 00:12:39;;;;;;;5.88;5.38;;;14.60;99.90;;;;;;4957414;28;20125;-77
2022/06/02 00:15:26;;;;;;;6.38;5.75;;;14.60;99.90;;;;;;4975472;28;20073;-77
2022/06/02 00:17:54;;;;;;;6.40;5.80;;;14.60;99.90;;;;;;4975286;28;20411;-77
2022/06/02 00:20:52;;;;;;;6.07;5.23;;;14.60;99.90;;;;;;4990532;28;20094;-77
2022/06/02 00:23:55;;;;;;;7.63;5.82;;;14.60;99.90;;;;;;4990101;28;20054;-77
2022/06/02 00:26:39;;;;;;;6.97;6.15;;;14.50;99.90;;;;;;4975039;28;20027;-77
2022/06/02 00:29:31;;;;;;;8.05;5.88;;;14.50;99.90;;;;;;4989973;28;20054;-77
2022/06/02 00:32:08;;;;;;;8.05;6.38;;;14.60;99.90;;;;;;4985965;28;20050;-77
2022/06/02 00:34:42;;;;;;;6.80;6.10;;;14.60;99.90;;;;;;5014390;28;20117;-77
2022/06/02 00:37:20;;;;;;;9.05;7.00;;;14.50;99.90;;;;;;5016341;28;20049;-77
2022/06/02 00:39:48;;;;;;;10.35;6.97;;;14.50;99.90;;;;;;5018146;28;20060;-77
2022/06/02 00:42:41;;;;;;;9.00;7.60;;;14.40;99.90;;;;;;5017985;28;20533;-77
2022/06/02 00:45:08;;;;;;;8.32;7.47;;;14.30;99.90;;;;;;5017931;28;20037;-77
2022/06/02 00:47:46;;;;;;;9.85;7.72;;;14.30;99.90;;;;;;5017966;28;20045;-77
2022/06/02 00:51:00;;;;;;;8.85;7.95;;;14.30;99.90;;;;;;5033113;28;20034;-77
2022/06/02 00:53:32;;;;;;;8.73;6.63;;;14.20;99.90;;;;;;5017793;28;20034;-77
2022/06/02 01:00:04;;;;;;;8.70;7.00;;;14.10;99.90;;;;;;4957184;29;20038;-77
2022/06/02 01:02:40;;;;;;;10.45;7.68;;;14.10;99.90;;;;;;4949334;29;20039;-77
2022/06/02 01:05:06;;;;;;;10.32;7.53;;;14.20;99.90;;;;;;5015728;28;20038;-77
2022/06/02 01:08:03;;;;;;;12.57;8.35;;;14.20;99.90;;;;;;5017484;28;20030;-77
2022/06/02 01:10:38;;;;;;;10.70;9.40;;;14.20;99.90;;;;;;5017459;28;20539;-77
2022/06/02 01:13:26;;;;;;;11.73;10.00;;;14.20;99.90;;;;;;5017458;28;20022;-77
2022/06/02 01:15:55;;;;;;;15.27;10.32;;;14.30;99.90;;;;;;5017603;28;20033;-77
2022/06/02 01:18:45;;;;;;;12.40;8.43;;;14.30;99.90;;;;;;5017598;28;20065;-77
2022/06/02 01:21:16;;;;;;;13.75;8.02;;;14.20;99.90;;;;;;5032775;28;20431;-77
2022/06/02 01:23:59;;;;;;;9.30;8.30;;;14.30;99.90;;;;;;5017271;28;20030;-77
2022/06/02 01:26:44;;;;;;;8.13;7.18;;;14.20;99.90;;;;;;5017174;28;20030;-77
2022/06/02 01:29:39;;;;;;;11.70;7.30;;;14.30;99.90;;;;;;5017263;28;20112;-77
2022/06/02 01:32:12;;;;;;;9.25;7.80;;;14.20;99.90;;;;;;5017160;28;20045;-77
2022/06/02 01:34:56;;;;;;;12.77;8.85;;;14.20;99.90;;;;;;5017262;28;20415;-77
2022/06/02 01:37:35;;;;;;;13.30;8.88;;;14.20;99.90;;;;;;5016949;28;20508;-77
2022/06/02 01:40:12;;;;;;;21.80;10.25;;;14.20;99.90;;;;;;5032218;28;20462;-77
2022/06/02 01:42:47;;;;;;;43.88;10.18;;;14.20;99.90;;;;;;5016834;28;20026;-77
2022/06/02 01:45:28;;;;;;;26.58;9.40;;;14.20;99.90;;;;;;5032235;28;20111;-77
2022/06/02 01:48:17;;;;;;;17.23;9.25;;;14.20;99.90;;;;;;5017094;28;20041;-77
2022/06/02 01:51:02;;;;;;;16.73;8.82;;;14.20;99.90;;;;;;5016795;28;20099;-77
2022/06/02 01:53:43;;;;;;;14.85;8.77;;;14.10;99.90;;;;;;5016907;28;20037;-77
2022/06/02 01:56:08;;;;;;;15.85;9.20;;;14.10;99.90;;;;;;5016381;28;20386;-77
2022/06/02 01:58:37;;;;;;;18.95;9.95;;;14.10;99.90;;;;;;5031783;28;20034;-77
2022/06/02 02:01:29;;;;;;;13.97;9.87;;;14.00;99.90;;;;;;5016246;28;20026;-77
2022/06/02 02:04:09;;;;;;;10.10;8.82;;;14.10;99.90;;;;;;5016474;28;20041;-77
2022/06/02 02:06:44;;;;;;;11.25;9.60;;;14.00;99.90;;;;;;5016675;28;20156;-77
2022/06/02 02:09:28;;;;;;;12.13;8.13;;;14.00;99.90;;;;;;5016398;28;20025;-77
2022/06/02 02:11:56;;;;;;;9.77;8.70;;;14.00;99.90;;;;;;5016688;28;20067;-77
2022/06/02 02:14:27;;;;;;;12.00;9.47;;;13.90;99.90;;;;;;5016349;28;20477;-77
2022/06/02 02:17:48;;;;;;;13.52;9.25;;;13.90;99.90;;;;;;5016200;28;20034;-77
2022/06/02 02:20:26;;;;;;;15.23;9.07;;;13.80;99.90;;;;;;4992754;28;20038;-77
2022/06/02 02:22:57;;;;;;;13.55;9.45;;;13.80;99.90;;;;;;5016181;28;20030;-77
2022/06/02 02:25:43;;;;;;;10.45;9.05;;;13.70;99.90;;;;;;5015437;28;20026;-77
2022/06/02 02:28:19;;;;;;;10.68;8.88;;;13.70;99.90;;;;;;5016031;28;20128;-77
2022/06/02 02:30:45;;;;;;;11.55;9.73;;;13.70;99.90;;;;;;5015716;28;20077;-77
2022/06/02 02:33:35;;;;;;;10.40;9.07;;;13.70;99.90;;;;;;5015923;28;20068;-77
2022/06/02 02:36:01;;;;;;;14.45;9.27;;;13.60;99.90;;;;;;5016013;28;20025;-77
2022/06/02 02:38:57;;;;;;;15.30;8.70;;;13.60;99.90;;;;;;5030782;28;20025;-77
2022/06/02 02:41:36;;;;;;;10.80;8.23;;;13.60;99.90;;;;;;5015880;28;20489;-77
2022/06/02 02:44:28;;;;;;;10.68;7.75;;;13.60;99.90;;;;;;5031519;28;20094;-77
2022/06/02 02:47:17;;;;;;;9.10;8.20;;;13.60;99.90;;;;;;5015612;28;20390;-77
2022/06/02 02:49:59;;;;;;;8.63;7.25;;;13.50;99.90;;;;;;5031208;28;20032;-77
2022/06/02 02:52:46;;;;;;;10.02;7.68;;;13.50;99.90;;;;;;5015957;28;20061;-77
2022/06/02 02:55:24;;;;;;;8.80;7.63;;;13.40;99.90;;;;;;5015623;28;20429;-77
2022/06/02 02:57:57;;;;;;;11.15;8.15;;;13.40;99.90;;;;;;5015651;28;20045;-77
2022/06/02 03:00:33;;;;;;;8.75;7.78;;;13.40;99.90;;;;;;5015270;28;20112;-77
2022/06/02 03:03:17;;;;;;;9.63;8.15;;;13.40;99.90;;;;;;5030536;28;20479;-77
2022/06/02 03:06:12;;;;;;;9.73;8.30;;;13.40;99.90;;;;;;5015502;28;20489;-77
2022/06/02 03:09:03;;;;;;;12.88;8.18;;;13.50;99.90;;;;;;5014864;28;20124;-77
2022/06/02 03:11:43;;;;;;;10.07;8.20;;;13.50;99.90;;;;;;5015204;28;20026;-77
2022/06/02 03:14:34;;;;;;;9.18;8.27;;;13.50;99.90;;;;;;5014892;28;20029;-77
2022/06/02 03:17:06;;;;;;;11.90;7.43;;;13.50;99.90;;;;;;5015249;28;20117;-77
2022/06/02 03:19:43;;;;;;;13.07;7.95;;;13.60;99.90;;;;;;5015015;28;20033;-77
2022/06/02 03:22:32;;;;;;;8.95;7.97;;;13.60;99.90;;;;;;5015137;28;20030;-77
2022/06/02 03:25:07;;;;;;;8.25;7.10;;;13.60;99.90;;;;;;5015402;28;20033;-77
2022/06/02 03:27:39;;;;;;;8.00;7.20;;;13.50;99.90;;;;;;5014813;28;20065;-77
2022/06/02 03:30:23;;;;;;;12.90;7.70;;;13.50;99.90;;;;;;5015018;28;20103;-77
2022/06/02 03:33:19;;;;;;;7.10;6.50;;;13.50;99.90;;;;;;5014896;28;20037;-77
2022/06/02 03:35:55;;;;;;;8.30;7.50;;;13.60;99.90;;;;;;5014748;28;20030;-77
2022/06/02 03:38:29;;;;;;;10.85;7.07;;;13.60;99.90;;;;;;5013769;28;20172;-77
2022/06/02 03:41:00;;;;;;;8.73;6.88;;;13.60;99.90;;;;;;5015188;28;20041;-77
2022/06/02 03:43:38;;;;;;;7.35;6.65;;;13.60;99.90;;;;;;5030171;28;20394;-76
2022/06/02 03:46:13;;;;;;;10.95;7.03;;;13.60;99.90;;;;;;5014489;28;20026;-77
2022/06/02 03:49:24;;;;;;;7.68;6.97;;;13.60;99.90;;;;;;5013418;28;20096;-77
2022/06/02 03:52:33;;;;;;;9.48;7.13;;;13.70;99.90;;;;;;5014608;28;20026;-77
2022/06/02 03:55:25;;;;;;;11.93;7.30;;;13.70;99.90;;;;;;4981078;28;20380;-76
2022/06/02 03:58:09;;;;;;;8.60;7.40;;;13.70;99.90;;;;;;5029777;28;20352;-77
2022/06/02 04:00:49;;;;;;;7.68;6.88;;;13.70;99.90;;;;;;5014480;28;20018;-73
2022/06/02 04:03:45;;;;;;;7.32;6.60;;;13.80;99.90;;;;;;5013354;28;20032;-73
2022/06/02 04:06:17;;;;;;;8.95;6.68;;;13.80;99.90;;;;;;5029171;28;20025;-73
2022/06/02 04:08:55;;;;;;;9.20;7.45;;;13.80;99.90;;;;;;5029327;28;20038;-74
2022/06/02 04:15:36;;;;;;;14.70;7.63;;;13.90;99.90;;;;;;5014218;28;20021;-74
2022/06/02 04:18:07;;;;;;;9.48;7.95;;;13.90;99.90;;;;;;4969964;28;20116;-73
2022/06/02 04:21:03;;;;;;;8.50;7.10;;;14.00;99.90;;;;;;5013797;28;20036;-73
2022/06/02 04:23:45;;;;;;;10.43;7.70;;;14.00;99.90;;;;;;5014169;28;20138;-74
2022/06/02 04:26:26;;;;;;;9.70;7.78;;;14.10;99.90;;;;;;5013809;28;20026;-76
2022/06/02 04:29:04;;;;;;;13.18;8.52;;;14.10;99.90;;;;;;5013666;28;20038;-76
2022/06/02 04:31:48;;;;;;;9.73;7.63;;;14.20;99.90;;;;;;5014525;28;20457;-75
2022/06/02 04:34:37;;;;;;;10.55;7.45;;;14.20;99.90;;;;;;5014004;28;20029;-76
2022/06/02 04:37:19;;;;;;;7.72;6.88;;;14.30;99.90;;;;;;5014110;28;20033;-76
2022/06/02 04:40:05;;;;;;;8.65;6.10;;;14.40;99.90;;;;;;5029098;28;20022;-74
2022/06/02 04:42:45;;;;;;;9.15;6.10;;;14.40;99.90;;;;;;5013166;28;20045;-73
2022/06/02 04:45:17;;;;;;;7.63;6.82;;;14.50;99.90;;;;;;5014282;28;20022;-63
2022/06/02 04:48:03;;;;;;;6.88;6.18;;;14.60;99.90;;;;;;5013799;28;20069;-63
2022/06/02 04:50:39;;;;;;;7.63;6.45;;;14.70;99.90;;;;;;5013906;28;20053;-62
2022/06/02 04:53:04;;;;;;;8.10;5.72;;;14.80;99.90;;;;;;5013602;28;20022;-63
2022/06/02 04:56:01;;;;;;;7.28;5.53;;;15.00;99.90;;;;;;5013841;28;20458;-75
2022/06/02 04:58:53;;;;;;;6.38;5.30;;;15.10;99.90;;;;;;5013827;28;20030;-75
2022/06/02 05:01:30;;;;;;;6.68;5.28;;;15.20;99.90;;;;;;5029200;28;20121;-75
2022/06/02 05:04:10;;;;;;;6.68;5.85;;;15.20;99.90;;;;;;5028808;28;20030;-75
2022/06/02 05:07:13;;;;;;;7.05;5.78;;;14.60;99.90;;;;;;5013642;28;20030;-72
2022/06/02 05:09:48;;;;;;;6.40;5.80;;;15.30;99.90;;;;;;5013632;28;20037;-72
2022/06/02 05:12:47;;;;;;;10.75;5.85;;;15.30;99.90;;;;;;5013339;28;20030;-72
2022/06/02 05:15:50;;;;;;;7.97;5.75;;;15.30;99.90;;;;;;5028543;28;20029;-72
2022/06/02 05:18:35;;;;;;;5.55;4.90;;;15.40;99.90;;;;;;5013475;28;20092;-73
2022/06/02 05:21:13;;;;;;;5.38;4.82;;;15.50;99.90;;;;;;5013799;28;20034;-73
2022/06/02 05:24:16;;;;;;;5.10;4.03;;;15.60;99.90;;;;;;5016443;28;20030;-72
2022/06/02 05:26:45;;;;;;;7.63;5.63;;;15.70;99.90;;;;;;5017095;28;20057;-75
2022/06/02 05:29:44;;;;;;;10.25;4.40;;;15.80;99.90;;;;;;5017271;28;20034;-75
2022/06/02 05:32:15;;;;;;;;;;;15.90;99.90;;;;;;5012534;28;20120;-75
2022/06/02 05:35:00;;;;;;;4.80;3.75;;;16.00;99.90;;;;;;5016695;28;19905;-75
2022/06/02 05:37:25;;;;;;;7.15;3.70;;;16.10;99.90;;;;;;5016736;28;20033;-75
2022/06/02 05:40:28;;;;;;;3.75;3.42;;;16.30;99.90;;;;;;5017084;28;20022;-76
2022/06/02 05:42:59;;;;;;;5.30;3.30;;;16.40;99.90;;;;;;5016951;28;20034;-76
2022/06/02 05:45:44;;;;;;;3.67;3.38;;;16.50;99.90;;;;;;5031969;28;20060;-75
2022/06/02 05:48:27;;;;;;;3.08;2.78;;;16.60;99.90;;;;;;5016777;28;20030;-76
2022/06/02 05:51:14;;;;;;;2.92;2.58;;;16.70;99.90;;;;;;5016867;28;20026;-76
2022/06/02 05:53:52;;;;;;;3.40;3.10;;;16.80;99.90;;;;;;5016683;28;20052;-76
2022/06/02 05:56:39;;;;;;;3.50;3.20;;;16.80;99.90;;;;;;5016888;28;20022;-76
2022/06/02 05:59:47;;;;;;;3.42;2.90;;;16.90;99.90;;;;;;5016782;28;20022;-76
2022/06/02 06:02:30;;;;;;;2.90;2.40;;;17.10;99.90;;;;;;5016655;28;20065;-76
2022/06/02 06:04:56;;;;;;;3.47;2.90;;;17.20;99.90;;;;;;5016530;28;20454;-76
2022/06/02 06:07:39;;;;;;;2.92;2.67;;;17.30;99.90;;;;;;5016681;28;20052;-76
2022/06/02 06:10:18;;;;;;;3.03;2.72;;;17.30;99.90;;;;;;5031374;28;20025;-76
2022/06/02 06:13:05;;;;;;;3.45;2.53;;;17.50;99.90;;;;;;5016422;28;20068;-77
2022/06/02 06:15:45;;;;;;;2.70;2.50;;;17.70;99.90;;;;;;5031587;28;20033;-77
2022/06/02 06:18:37;;;;;;;5.45;2.30;;;17.70;99.90;;;;;;5016021;28;20022;-76
2022/06/02 06:21:13;;;;;;;4.05;2.40;;;17.70;99.90;;;;;;5016466;28;20018;-77
2022/06/02 06:24:01;;;;;;;4.72;2.95;;;17.70;99.90;;;;;;5016284;28;20084;-77
2022/06/02 06:26:29;;;;;;;2.83;2.50;;;17.80;99.90;;;;;;5016128;28;20430;-76
2022/06/02 06:29:29;;;;;;;2.75;2.22;;;18.10;99.90;;;;;;5016166;28;20087;-77
2022/06/02 06:32:11;;;;;;;2.40;2.20;;;18.40;99.90;;;;;;5016374;28;20041;-77
2022/06/02 06:35:01;;;;;;;2.28;1.85;;;18.50;99.90;;;;;;5015200;28;20104;-77
2022/06/02 06:37:45;;;;;;;2.40;2.20;;;18.50;99.90;;;;;;5015837;28;20026;-77
2022/06/02 06:40:19;;;;;;;2.00;1.80;;;18.40;99.90;;;;;;5031464;28;20117;-77
2022/06/02 06:43:04;;;;;;;4.78;2.40;;;18.50;99.90;;;;;;5030994;28;20470;-77
2022/06/02 06:45:43;;;;;;;3.22;2.30;;;18.60;99.90;;;;;;5015841;28;20052;-77
2022/06/02 06:48:11;;;;;;;;;;;18.80;99.90;;;;;;5016059;28;20025;-77
2022/06/02 06:50:58;;;;;;;2.45;2.15;;;18.70;99.90;;;;;;5030850;28;19941;-77
2022/06/02 06:53:32;;;;;;;2.65;2.40;;;18.50;99.90;;;;;;5015749;28;20065;-77
2022/06/02 06:56:06;;;;;;;3.17;1.98;;;18.50;99.90;;;;;;5015259;28;20477;-77
2022/06/02 06:58:46;;;;;;;3.50;1.90;;;18.40;99.90;;;;;;5015548;28;20492;-77
2022/06/02 07:01:33;;;;;;;1.92;1.70;;;18.30;99.90;;;;;;5030646;28;20018;-77
2022/06/02 07:04:26;;;;;;;3.63;1.67;;;18.30;99.90;;;;;;5015568;28;20454;-78
2022/06/02 07:06:57;;;;;;;1.63;1.50;;;18.30;99.90;;;;;;5015335;28;20034;-77
2022/06/02 07:09:23;;;;;;;1.55;1.45;;;18.40;99.90;;;;;;5015339;28;20030;-76
2022/06/02 07:15:16;;;;;;;1.45;1.30;;;18.40;99.90;;;;;;5015267;28;20029;-77
2022/06/02 07:17:54;;;;;;;2.50;1.63;;;18.50;99.90;;;;;;5012041;28;20038;-77
2022/06/02 07:20:29;;;;;;;3.33;1.77;;;18.50;99.90;;;;;;5015073;28;20025;-77
2022/06/02 07:23:12;;;;;;;2.05;1.60;;;18.60;99.90;;;;;;5030230;28;20469;-77
2022/06/02 07:25:57;;;;;;;3.78;1.67;;;18.60;99.90;;;;;;5015155;28;20060;-77
2022/06/02 07:28:33;;;;;;;2.58;1.40;;;19.00;99.90;;;;;;5015115;28;20030;-77
2022/06/02 07:31:36;;;;;;;1.50;1.23;;;19.30;99.90;;;;;;5014874;28;20421;-77
2022/06/02 07:34:30;;;;;;;1.45;1.35;;;19.40;99.90;;;;;;5014864;28;20088;-77
2022/06/02 07:37:31;;;;;;;1.90;1.48;;;20.00;99.90;;;;;;5015131;28;20362;-78
2022/06/02 07:40:19;;;;;;;1.30;1.30;;;20.20;99.90;;;;;;5013829;28;20022;-78
2022/06/02 07:42:57;;;;;;;1.30;1.20;;;20.20;99.90;;;;;;5030791;28;20354;-78
2022/06/02 07:45:47;;;;;;;1.35;1.20;;;20.50;99.90;;;;;;5014572;28;20072;-79
2022/06/02 07:48:24;;;;;;;4.72;1.27;;;21.00;99.90;;;;;;5014713;28;20030;-76
2022/06/02 07:51:08;;;;;;;2.05;1.10;;;21.60;99.90;;;;;;5029593;28;20022;-76
2022/06/02 07:54:02;;;;;;;1.73;1.05;;;21.80;99.90;;;;;;5014538;28;20053;-76
2022/06/02 07:56:44;;;;;;;1.63;1.10;;;22.20;99.90;;;;;;5014327;28;20028;-76
2022/06/02 07:59:25;;;;;;;1.73;1.10;;;22.30;99.90;;;;;;5014572;28;20018;-76
2022/06/02 08:02:29;;;;;;;1.27;1.10;;;22.80;99.40;;;;;;5014629;28;20030;-76
2022/06/02 08:05:10;;;;;;;3.50;1.25;;;22.80;96.80;;;;;;5013883;28;20361;-77
2022/06/02 08:07:42;;;;;;;0.93;0.93;;;23.00;97.70;;;;;;5014868;28;20030;-76
2022/06/02 08:10:40;;;;;;;1.30;1.13;;;23.30;97.00;;;;;;5015200;28;20412;-77
2022/06/02 08:13:18;;;;;;;3.97;1.40;;;23.90;97.10;;;;;;5016434;28;20028;-77
2022/06/02 08:16:03;;;;;;;2.33;1.20;;;24.30;96.00;;;;;;5029653;28;20061;-77
2022/06/02 08:18:47;;;;;;;4.95;1.23;;;24.70;93.10;;;;;;5013914;28;20108;-77
2022/06/02 08:21:27;;;;;;;1.58;1.20;;;25.10;88.80;;;;;;5014137;28;20022;-77
2022/06/02 08:23:56;;;;;;;1.42;1.02;;;25.20;84.10;;;;;;5029394;28;20025;-77
2022/06/02 08:26:59;;;;;;;2.58;1.48;;;25.10;83.00;;;;;;5014540;28;20030;-78
2022/06/02 08:29:46;;;;;;;5.50;1.42;;;25.60;82.30;;;;;;5013619;28;20393;-78
2022/06/02 08:32:39;;;;;;;0.98;0.98;;;25.90;77.30;;;;;;5013191;28;20032;-78
2022/06/02 08:35:16;;;;;;;3.67;1.60;;;26.20;78.30;;;;;;5014247;28;20473;-78
2022/06/02 08:37:45;;;;;;;1.50;1.40;;;26.30;74.70;;;;;;5029367;28;20481;-79
2022/06/02 08:40:23;;;;;;;1.63;1.50;;;26.60;70.00;;;;;;5013911;28;20108;-78
2022/06/02 08:42:49;;;;;;;;;;;26.20;70.90;;;;;;5014495;28;20033;-78
2022/06/02 08:45:51;;;;;;;1.77;1.20;;;26.30;73.80;;;;;;5029120;28;19901;-79
2022/06/02 08:48:41;;;;;;;2.03;1.33;;;26.70;70.80;;;;;;5029113;28;20026;-79
2022/06/02 08:51:32;;;;;;;2.20;1.10;;;26.60;67.90;;;;;;5014289;28;20037;-79
2022/06/02 08:54:22;;;;;;;1.75;1.15;;;26.50;68.50;;;;;;5013715;28;20033;-78
2022/06/02 08:57:00;;;;;;;3.80;1.10;;;26.80;65.60;;;;;;5013809;28;20054;-78
2022/06/02 08:59:47;;;;;;;1.00;1.00;;;27.20;62.60;;;;;;5017816;28;20442;-79
2022/06/02 09:02:41;;;;;;;1.27;1.20;;;27.40;59.40;;;;;;5017814;28;20041;-79
2022/06/02 09:05:32;;;;;;;1.75;1.13;;;27.60;58.20;;;;;;5017953;28;20025;-79
2022/06/02 09:08:17;;;;;;;1.35;1.25;;;27.00;59.90;;;;;;5017835;28;20018;-78
2022/06/02 09:10:49;;;;;;;1.27;1.15;;;26.70;60.20;;;;;;5006530;28;20049;-79
2022/06/02 09:13:33;;;;;;;2.85;1.27;;;26.80;59.60;;;;;;5017814;28;20026;-79
2022/06/02 09:16:21;;;;;;;1.40;1.30;;;27.00;59.70;;;;;;5017456;28;20473;-78
2022/06/02 09:19:09;;;;;;;1.48;1.00;;;27.20;59.80;;;;;;5017450;28;20083;-78
2022/06/02 09:21:57;;;;;;;2.38;1.17;;;27.30;59.20;;;;;;5017169;28;20464;-79
2022/06/02 09:24:38;;;;;;;2.22;1.15;;;27.40;59.70;;;;;;5017498;28;20026;-78
2022/06/02 09:27:32;;;;;;;5.07;1.08;;;27.80;58.50;;;;;;5032408;28;20036;-79
2022/06/02 09:30:18;;;;;;;6.95;1.35;;;28.30;58.00;;;;;;5016931;28;20128;-79
2022/06/02 09:33:33;;;;;;;2.58;1.13;;;28.70;55.10;;;;;;5017281;28;20030;-80
2022/06/02 09:35:59;;;;;;;1.05;1.05;;;28.50;55.50;;;;;;5016971;28;20034;-80
2022/06/02 09:38:46;;;;;;;1.17;1.10;;;28.80;55.20;;;;;;5017642;28;20050;-81
2022/06/02 09:41:34;;;;;;;2.22;1.35;;;29.40;55.10;;;;;;5016861;28;20101;-81
2022/06/02 09:44:21;;;;;;;1.90;1.20;;;30.00;53.50;;;;;;5016979;28;20385;-80
2022/06/02 09:47:08;;;;;;;1.38;1.27;;;29.30;52.40;;;;;;5017166;28;20018;-80
2022/06/02 09:49:40;;;;;;;1.80;1.00;;;29.10;53.20;;;;;;5015971;28;20019;-80
2022/06/02 09:52:34;;;;;;;1.00;1.00;;;29.10;54.20;;;;;;5032522;28;20034;-82
2022/06/02 09:55:31;;;;;;;1.30;1.20;;;29.20;53.60;;;;;;5017000;28;20114;-81
2022/06/02 09:58:27;;;;;;;2.07;1.60;;;29.40;51.50;;;;;;5017166;28;20101;-81
2022/06/02 10:01:01;;;;;;;2.03;1.02;;;28.90;51.70;;;;;;5016794;28;20029;-80
2022/06/02 10:03:44;;;;;;;1.30;1.20;;;28.60;52.60;;;;;;5016933;28;20028;-81
2022/06/02 10:06:43;;;;;;;3.35;1.33;;;28.70;51.20;;;;;;5016887;28;20481;-80
2022/06/02 10:09:43;;;;;;;3.45;1.23;;;28.70;50.60;;;;;;5014584;28;20433;-81
2022/06/02 10:15:35;;;;;;;2.03;1.75;;;29.60;52.80;;;;;;5016529;28;20369;-81
2022/06/02 10:18:19;;;;;;;1.40;1.10;;;29.50;50.40;;;;;;5016237;28;20030;-80
2022/06/02 10:20:53;;;;;;;1.10;1.00;;;29.10;49.30;;;;;;5016532;28;20052;-81
2022/06/02 10:23:48;;;;;;;1.55;0.93;;;28.60;50.20;;;;;;5015122;28;20450;-80
2022/06/02 10:26:23;;;;;;;1.73;1.10;;;28.00;50.90;;;;;;4990372;28;20040;-80
2022/06/02 10:29:07;;;;;;;3.05;1.05;;;28.20;50.50;;;;;;5016117;28;20057;-79
2022/06/02 10:31:55;;;;;;;3.03;1.23;;;28.80;50.60;;;;;;5016149;28;20378;-79
2022/06/02 10:34:39;;;;;;;2.50;1.10;;;29.00;49.00;;;;;;5015906;28;20026;-80
2022/06/02 10:37:14;;;;;;;2.60;0.93;;;29.40;50.10;;;;;;5016118;28;20149;-80
2022/06/02 10:39:51;;;;;;;2.45;0.90;;;29.40;48.80;;;;;;5016058;28;20014;-79
2022/06/02 10:42:34;;;;;;;2.35;0.95;;;29.40;48.70;;;;;;5016095;28;20075;-79
2022/06/02 10:45:36;;;;;;;1.00;0.98;;;29.20;49.10;;;;;;5016174;28;20079;-79
2022/06/02 10:48:35;;;;;;;0.95;0.85;;;29.20;47.00;;;;;;5030986;28;20033;-79
2022/06/02 10:51:39;;;;;;;1.75;1.15;;;29.30;47.80;;;;;;5030947;28;20021;-78
2022/06/02 10:54:16;;;;;;;1.00;0.95;;;29.20;48.30;;;;;;4955514;29;20444;-79
2022/06/02 10:56:47;;;;;;;1.42;0.95;;;29.70;48.20;;;;;;4955072;29;20118;-79
2022/06/02 10:59:31;;;;;;;1.70;0.98;;;29.80;47.80;;;;;;4989978;28;20045;-78
2022/06/02 11:02:15;;;;;;;1.00;0.90;;;29.70;46.30;;;;;;5014486;28;20022;-78
2022/06/02 11:05:03;;;;;;;1.08;0.80;;;29.80;48.40;;;;;;5015621;28;20524;-78
2022/06/02 11:07:52;;;;;;;1.10;0.60;;;30.30;45.60;;;;;;5015464;28;20129;-78
2022/06/02 11:10:33;;;;;;;3.58;0.70;;;30.70;43.20;;;;;;5015343;28;20358;-79
2022/06/02 11:13:27;;;;;;;1.80;0.80;;;31.00;41.80;;;;;;5015748;28;20033;-81
2022/06/02 11:16:11;;;;;;;2.20;0.60;;;31.60;41.40;;;;;;5015573;28;20096;-81
2022/06/02 11:18:45;;;;;;;3.17;1.08;;;32.10;41.10;;;;;;5031103;28;20116;-78
2022/06/02 11:21:23;;;;;;;2.83;1.00;;;32.10;40.70;;;;;;5029790;28;20022;-79
2022/06/02 11:24:04;;;;;;;2.67;0.77;;;31.80;40.80;;;;;;5014064;28;20090;-79
2022/06/02 11:26:44;;;;;;;2.35;1.08;;;30.80;40.90;;;;;;5015170;28;20014;-79
2022/06/02 11:29:48;;;;;;;0.93;0.93;;;30.60;42.80;;;;;;5015176;28;20042;-79
2022/06/02 11:32:28;;;;;;;1.15;0.68;;;30.70;43.00;;;;;;5015153;28;20042;-79
2022/06/02 11:35:32;;;;;;;2.53;0.95;;;31.70;41.60;;;;;;5030245;28;20026;-81
2022/06/02 11:38:27;;;;;;;1.80;0.90;;;31.90;40.90;;;;;;5014686;28;20140;-78
2022/06/02 11:41:01;;;;;;;3.85;1.20;;;32.00;41.10;;;;;;5014668;28;20061;-79
2022/06/02 11:43:51;;;;;;;1.27;1.00;;;31.50;40.90;;;;;;5029877;28;20026;-80
2022/06/02 11:46:41;;;;;;;3.60;0.90;;;31.70;41.60;;;;;;5014509;28;20025;-82
2022/06/02 11:49:29;;;;;;;1.83;0.90;;;32.00;42.20;;;;;;5014626;28;20065;-80
2022/06/02 11:52:25;;;;;;;0.63;0.60;;;32.90;39.50;;;;;;5029928;28;20525;-79
2022/06/02 11:55:25;;;;;;;4.57;0.70;;;33.00;40.30;;;;;;5014839;28;20488;-81
2022/06/02 11:58:20;;;;;;;1.95;0.70;;;33.30;40.30;;;;;;5014615;28;20116;-81
2022/06/02 12:00:53;;;;;;;0.77;0.77;;;32.80;39.10;;;;;;5015153;28;20050;-80
2022/06/02 12:03:50;;;;;;;0.95;0.60;;;32.30;39.90;;;;;;5014680;28;20028;-81
2022/06/02 12:06:41;;;;;;;1.93;0.80;;;32.80;37.50;;;;;;5014547;28;20065;-81
2022/06/02 12:09:20;;;;;;;3.35;0.60;;;32.80;37.50;;;;;;5014168;28;20033;-80
2022/06/02 12:12:20;;;;;;;1.45;0.80;;;32.90;38.50;;;;;;5029581;28;20056;-80
2022/06/02 12:15:16;;;;;;;2.35;0.60;;;33.10;37.30;;;;;;5014384;28;20029;-80
2022/06/02 12:18:13;;;;;;;3.50;0.70;;;33.30;34.80;;;;;;5014195;28;20026;-78
2022/06/02 12:21:03;;;;;;;4.68;0.88;;;33.10;38.00;;;;;;5002512;28;20038;-80
2022/06/02 12:23:56;;;;;;;1.50;0.73;;;33.40;36.60;;;;;;5013696;28;20049;-80
2022/06/02 12:26:47;;;;;;;1.20;0.63;;;33.00;38.20;;;;;;5014098;28;20097;-80
2022/06/02 12:29:40;;;;;;;0.93;0.80;;;32.60;38.50;;;;;;5029277;28;20377;-77
2022/06/02 12:32:21;;;;;;;1.90;0.70;;;31.80;38.10;;;;;;5013630;28;20057;-77
2022/06/02 12:34:59;;;;;;;1.98;0.98;;;31.40;40.70;;;;;;5029298;28;20037;-77
2022/06/02 12:37:30;;;;;;;1.13;0.85;;;31.80;39.80;;;;;;5013900;28;20025;-78
2022/06/02 12:40:14;;;;;;;1.63;0.85;;;31.80;40.00;;;;;;5014014;28;20037;-77
2022/06/02 12:43:22;;;;;;;2.28;0.82;;;31.50;41.20;;;;;;5013912;28;20032;-80
2022/06/02 12:46:23;;;;;;;1.42;1.00;;;31.30;40.20;;;;;;5014380;28;20104;-77
2022/06/02 12:49:25;;;;;;;1.05;0.50;;;31.10;40.40;;;;;;5020014;28;20026;-77
2022/06/02 12:52:10;;;;;;;1.17;0.85;;;32.30;39.90;;;;;;5013902;28;20308;-78
2022/06/02 12:54:36;;;;;;;1.92;0.85;;;33.40;38.40;;;;;;5013857;28;20049;-80
2022/06/02 12:57:49;;;;;;;1.95;0.93;;;33.70;38.50;;;;;;5013762;28;20053;-77
2022/06/02 13:00:26;;;;;;;0.55;0.55;;;33.40;36.40;;;;;;5013914;28;20022;-78
2022/06/02 13:03:23;;;;;;;1.30;0.80;;;32.40;36.10;;;;;;5013877;28;20037;-77
2022/06/02 13:06:18;;;;;;;1.20;0.60;;;32.30;36.60;;;;;;5012706;28;20030;-78
2022/06/02 13:09:02;;;;;;;2.20;0.60;;;32.60;36.00;;;;;;5013869;28;20500;-77
2022/06/02 13:11:39;;;;;;;1.10;0.70;;;32.00;37.30;;;;;;5014004;28;20065;-77
2022/06/02 13:15:02;;;;;;;1.80;0.82;;;32.30;36.70;;;;;;5013400;28;20026;-77
2022/06/02 13:17:52;;;;;;;2.03;0.60;;;31.50;38.20;;;;;;4952810;29;20038;-77
2022/06/02 13:20:38;;;;;;;2.05;0.80;;;32.00;39.50;;;;;;4953004;29;20447;-77
2022/06/02 13:23:28;;;;;;;3.60;0.70;;;33.10;38.50;;;;;;4997969;28;20088;-77
2022/06/02 13:26:15;;;;;;;2.15;0.70;;;33.70;37.70;;;;;;5014176;28;20026;-77
2022/06/02 13:28:49;;;;;;;1.75;0.52;;;33.30;37.40;;;;;;5028667;28;20034;-78
2022/06/02 13:31:27;;;;;;;0.90;0.90;;;32.40;37.80;;;;;;5012157;28;20046;-79
2022/06/02 13:34:11;;;;;;;0.73;0.73;;;31.70;38.30;;;;;;5012793;28;20058;-77
2022/06/02 13:36:44;;;;;;;1.05;0.70;;;31.40;37.10;;;;;;5013465;28;20105;-77
2022/06/02 13:39:37;;;;;;;0.85;0.77;;;30.10;38.60;;;;;;5013287;28;20105;-77
2022/06/02 13:42:11;;;;;;;1.50;0.60;;;30.20;39.70;;;;;;5013469;28;20026;-78
2022/06/02 13:45:07;;;;;;;8.02;1.45;;;30.80;40.20;;;;;;5015656;28;20459;-78
2022/06/02 13:47:43;;;;;;;2.75;0.60;;;31.80;39.90;;;;;;5016859;28;20041;-77
2022/06/02 13:51:03;;;;;;;12.15;9.30;;;31.90;39.00;;;;;;5016958;28;20021;-79
2022/06/02 13:59:53;;;;;;;2.15;0.90;;;32.70;39.00;;;;;;5016382;28;20076;-75
2022/06/02 14:02:19;;;;;;;2.65;0.80;;;32.90;38.10;;;;;;5016552;28;20026;-75
2022/06/02 14:05:10;;;;;;;1.05;0.98;;;33.00;37.60;;;;;;5016179;28;20489;-74
2022/06/02 14:08:23;;;;;;;3.13;0.75;;;32.60;37.90;;;;;;5016398;28;20493;-74
2022/06/02 14:10:54;;;;;;;2.15;0.80;;;32.70;39.30;;;;;;5023789;28;20375;-76
2022/06/02 14:13:45;;;;;;;1.38;0.80;;;32.70;38.50;;;;;;5016366;28;20173;-76
2022/06/02 14:16:31;;;;;;;0.85;0.85;;;31.80;39.70;;;;;;5014871;28;20033;-77
2022/06/02 14:19:10;;;;;;;0.50;0.50;;;31.70;39.70;;;;;;4991606;28;20038;-74
2022/06/02 14:22:10;;;;;;;2.15;1.05;;;32.10;39.00;;;;;;5016166;28;20080;-74
2022/06/02 14:24:52;;;;;;;2.30;1.33;;;30.50;39.20;;;;;;5015124;28;20084;-74
2022/06/02 14:27:20;;;;;;;1.58;1.10;;;29.90;41.40;;;;;;5015847;28;20064;-72
2022/06/02 14:30:04;;;;;;;;;;;29.50;42.20;;;;;;5016589;28;20851;-73
2022/06/02 14:32:42;;;;;;;2.22;0.95;;;29.20;41.80;;;;;;5014627;28;19916;-74
2022/06/02 14:35:28;;;;;;;1.85;0.70;;;29.30;45.30;;;;;;5015594;28;20054;-73